Time;durP1;ratioP1;P1;durP2;ratioP2;P2;SDS_P1;SDS_P2;PMS_P1;PMS_P2;Temp;Humidity;BMP_temperature;BMP_pressure;BME280_temperature;BME280_humidity;BME280_pressure;Samples;Min_cycle;Max_cycle;Signal;HPM_P1;HPM_P2
2022/03/04 00:01:35;;;;;;;45.75;22.52;;;;;;;2.21;67.48;99347.34;5010775;28;20060;-73
2022/03/04 00:04:00;;;;;;;38.42;20.45;;;;;;;2.12;67.33;99332.66;5028258;28;20044;-73
2022/03/04 00:06:26;;;;;;;45.10;22.58;;;;;;;2.18;68.23;99342.47;5026768;28;20478;-72
2022/03/04 00:08:51;;;;;;;44.80;22.02;;;;;;;2.15;67.41;99343.66;5026974;28;20032;-73
2022/03/04 00:11:17;;;;;;;42.63;23.30;;;;;;;2.15;67.27;99345.47;5027484;28;20033;-73
2022/03/04 00:13:42;;;;;;;38.85;21.05;;;;;;;2.12;67.72;99349.25;5023942;28;20747;-73
2022/03/04 00:16:08;;;;;;;41.38;21.30;;;;;;;2.11;67.51;99352.09;5026622;28;20164;-73
2022/03/04 00:18:33;;;;;;;40.63;22.00;;;;;;;2.05;67.57;99339.66;5028090;28;20033;-74
2022/03/04 00:20:58;;;;;;;45.30;23.55;;;;;;;2.02;67.56;99337.38;5027684;28;20025;-72
2022/03/04 00:23:24;;;;;;;43.28;22.35;;;;;;;1.88;68.11;99323.22;4995638;28;20033;-73
2022/03/04 00:25:49;;;;;;;40.38;21.20;;;;;;;1.98;68.26;99338.75;5026753;28;20029;-74
2022/03/04 00:28:15;;;;;;;40.55;21.02;;;;;;;1.99;67.64;99353.53;5026321;28;20064;-74
2022/03/04 00:30:40;;;;;;;45.15;21.27;;;;;;;1.97;67.96;99356.34;5026132;28;20025;-73
2022/03/04 00:33:05;;;;;;;48.03;22.42;;;;;;;1.95;67.76;99352.25;5026627;28;20175;-74
2022/03/04 00:35:31;;;;;;;40.70;20.20;;;;;;;1.89;67.89;99347.72;5019653;28;20402;-74
2022/03/04 00:37:56;;;;;;;39.53;21.63;;;;;;;1.95;68.26;99349.63;5028553;28;20034;-73
2022/03/04 00:40:22;;;;;;;42.80;21.50;;;;;;;1.88;67.73;99343.47;5010443;28;20041;-74
2022/03/04 00:42:47;;;;;;;39.95;22.52;;;;;;;1.92;68.22;99353.44;5025413;28;20436;-74
2022/03/04 00:45:13;;;;;;;40.33;21.52;;;;;;;1.90;67.87;99360.69;5027077;28;20045;-73
2022/03/04 00:47:38;;;;;;;41.97;22.58;;;;;;;1.87;67.57;99358.44;5029305;28;20032;-74
2022/03/04 00:50:04;;;;;;;39.03;21.25;;;;;;;1.81;67.65;99356.53;5029458;28;20120;-73
2022/03/04 00:52:30;;;;;;;40.75;21.90;;;;;;;1.83;68.67;99364.25;5027136;28;20036;-73
2022/03/04 00:54:56;;;;;;;39.63;21.20;;;;;;;1.75;67.93;99359.88;5028075;28;20033;-73
2022/03/04 00:57:21;;;;;;;44.58;21.90;;;;;;;1.75;67.69;99353.81;5008899;28;20432;-73
2022/03/04 00:59:46;;;;;;;43.08;21.60;;;;;;;1.79;67.81;99355.06;5027139;28;20033;-73
2022/03/04 01:02:12;;;;;;;42.83;22.13;;;;;;;1.70;67.96;99340.38;5010442;28;20029;-74
2022/03/04 01:04:37;;;;;;;40.55;21.88;;;;;;;1.77;68.17;99351.81;5027459;28;20051;-73
2022/03/04 01:07:03;;;;;;;45.03;23.05;;;;;;;1.75;68.11;99348.53;5025822;28;20408;-73
2022/03/04 01:09:29;;;;;;;41.72;20.80;;;;;;;1.71;68.14;99357.78;5027155;28;20032;-73
2022/03/04 01:11:54;;;;;;;39.05;20.35;;;;;;;1.69;67.79;99357.97;5016574;28;20029;-73
2022/03/04 01:14:20;;;;;;;37.67;19.08;;;;;;;1.64;68.13;99349.78;5021831;28;20112;-73
2022/03/04 01:16:45;;;;;;;44.95;21.38;;;;;;;1.68;67.96;99350.25;5024948;28;20053;-73
2022/03/04 01:19:10;;;;;;;42.13;22.40;;;;;;;1.68;68.12;99350.25;5028146;28;20044;-73
2022/03/04 01:21:36;;;;;;;41.42;20.73;;;;;;;1.67;68.36;99346.78;5004529;28;20090;-72
2022/03/04 01:24:01;;;;;;;41.67;21.98;;;;;;;1.67;68.26;99340.72;5022484;28;20041;-73
2022/03/04 01:26:27;;;;;;;40.83;21.42;;;;;;;1.71;68.35;99347.25;5011077;28;20025;-71
2022/03/04 01:28:52;;;;;;;45.17;21.58;;;;;;;1.68;68.70;99339.72;5028265;28;20132;-71
2022/03/04 01:31:17;;;;;;;39.40;21.30;;;;;;;1.70;68.73;99343.81;5024878;28;20029;-73
2022/03/04 01:33:43;;;;;;;43.53;22.55;;;;;;;1.75;68.58;99356.44;5014090;28;20025;-72
2022/03/04 01:36:08;;;;;;;43.85;21.83;;;;;;;1.75;69.31;99359.06;5032334;28;20072;-72
2022/03/04 01:38:34;;;;;;;39.22;20.63;;;;;;;1.74;69.12;99358.25;5030943;28;20485;-73
2022/03/04 01:40:59;;;;;;;41.17;20.83;;;;;;;1.74;68.72;99358.25;5031759;28;20030;-73
2022/03/04 01:43:25;;;;;;;39.13;20.65;;;;;;;1.78;69.02;99359.50;5031222;28;20029;-73
2022/03/04 01:45:50;;;;;;;44.83;22.45;;;;;;;1.80;69.43;99348.81;5029479;28;20386;-72
2022/03/04 01:48:19;;;;;;;42.45;22.27;;;;;;;1.79;69.23;99360.34;5022340;28;20053;-73
2022/03/04 01:50:50;;;;;;;42.95;21.30;;;;;;;1.84;69.08;99356.16;5028614;28;20025;-71
2022/03/04 01:53:17;;;;;;;44.05;21.40;;;;;;;1.84;69.26;99356.16;5032148;28;20041;-72
2022/03/04 01:55:42;;;;;;;41.00;22.42;;;;;;;1.83;69.41;99349.28;5031769;28;20498;-71
2022/03/04 01:58:08;;;;;;;40.53;21.05;;;;;;;1.83;69.24;99340.56;5013945;28;20038;-71
2022/03/04 02:00:33;;;;;;;47.33;22.33;;;;;;;1.79;69.06;99344.56;5031874;28;20061;-71
2022/03/04 02:03:00;;;;;;;42.45;22.25;;;;;;;1.84;69.74;99350.06;5027788;28;20038;-73
2022/03/04 02:05:26;;;;;;;47.25;23.40;;;;;;;1.85;69.31;99351.72;5025749;28;20105;-73
2022/03/04 02:07:52;;;;;;;40.50;22.73;;;;;;;1.83;69.21;99348.44;5026562;28;20657;-73
2022/03/04 02:10:17;;;;;;;44.55;22.75;;;;;;;1.83;69.73;99343.19;5028150;28;20135;-73
2022/03/04 02:12:43;;;;;;;49.50;23.20;;;;;;;1.84;69.35;99350.06;5031372;28;20045;-73
2022/03/04 02:15:09;;;;;;;46.70;24.35;;;;;;;1.89;69.90;99353.00;5031527;28;20532;-73
2022/03/04 02:17:35;;;;;;;49.42;23.17;;;;;;;1.86;69.60;99359.44;5029555;28;20040;-74
2022/03/04 02:20:03;;;;;;;47.08;23.23;;;;;;;1.83;69.59;99345.81;5027062;28;20057;-74
2022/03/04 02:22:28;;;;;;;45.55;21.67;;;;;;;1.88;69.77;99357.44;5026105;28;20068;-74
2022/03/04 02:24:54;;;;;;;47.10;23.30;;;;;;;1.87;69.91;99365.50;5012898;28;20033;-74
2022/03/04 02:27:19;;;;;;;45.75;23.30;;;;;;;1.87;69.66;99358.44;5030220;28;20444;-73
2022/03/04 02:29:44;;;;;;;48.47;22.50;;;;;;;1.85;69.57;99359.63;5031297;28;20518;-74
2022/03/04 02:32:10;;;;;;;47.40;22.67;;;;;;;1.81;69.56;99350.44;5026271;28;20103;-73
2022/03/04 02:34:35;;;;;;;46.42;21.52;;;;;;;1.85;69.53;99363.06;4994858;28;20494;-74
2022/03/04 02:37:00;;;;;;;45.05;23.10;;;;;;;1.86;70.22;99369.13;5007183;28;20088;-73
2022/03/04 02:39:26;;;;;;;45.92;22.80;;;;;;;1.84;69.78;99355.34;5009002;28;20025;-73
2022/03/04 02:41:51;;;;;;;42.60;21.40;;;;;;;1.87;70.13;99365.50;5030863;28;20037;-72
2022/03/04 02:44:17;;;;;;;50.97;22.45;;;;;;;1.85;69.81;99364.88;5031769;28;20430;-73
2022/03/04 02:46:42;;;;;;;51.22;21.95;;;;;;;1.86;70.01;99369.94;5029411;28;20029;-73
2022/03/04 02:49:09;;;;;;;47.75;24.00;;;;;;;1.89;69.73;99360.88;4997042;28;20029;-72
2022/03/04 02:51:35;;;;;;;45.58;20.88;;;;;;;1.91;70.01;99372.88;5030052;28;20029;-73
2022/03/04 02:54:00;;;;;;;45.15;22.27;;;;;;;1.88;70.13;99364.53;5011659;28;20045;-73
2022/03/04 02:56:26;;;;;;;41.50;22.10;;;;;;;1.81;69.79;99363.59;5012535;28;20029;-73
2022/03/04 02:58:51;;;;;;;39.70;20.55;;;;;;;1.90;69.64;99379.13;5029479;28;20030;-73
2022/03/04 03:01:17;;;;;;;47.13;23.17;;;;;;;1.91;70.34;99382.56;5012086;28;20044;-73
2022/03/04 03:03:42;;;;;;;45.17;20.63;;;;;;;1.88;70.00;99377.69;5029611;28;20025;-71
2022/03/04 03:06:08;;;;;;;51.63;22.45;;;;;;;1.90;69.50;99383.59;5029677;28;20449;-71
2022/03/04 03:08:33;;;;;;;42.63;21.58;;;;;;;1.88;69.64;99383.75;5027194;28;20573;-71
2022/03/04 03:10:59;;;;;;;47.60;22.92;;;;;;;1.89;69.84;99389.84;5010410;28;20513;-70
2022/03/04 03:13:24;;;;;;;39.67;21.63;;;;;;;1.90;69.69;99396.75;5026167;28;20029;-72
2022/03/04 03:15:50;;;;;;;43.55;21.05;;;;;;;1.84;69.67;99382.47;5030940;28;20437;-72
2022/03/04 03:18:16;;;;;;;48.97;21.13;;;;;;;1.91;69.84;99382.56;5012937;28;20100;-72
2022/03/04 03:20:42;;;;;;;40.92;21.95;;;;;;;1.91;69.66;99387.84;5030079;28;20025;-71
2022/03/04 03:23:07;;;;;;;41.22;20.83;;;;;;;1.87;69.88;99386.56;5029824;28;20704;-71
2022/03/04 03:25:33;;;;;;;46.50;21.90;;;;;;;1.82;70.15;99395.00;5026204;28;20631;-71
2022/03/04 03:27:58;;;;;;;46.33;21.27;;;;;;;1.82;70.00;99389.72;5009248;28;20022;-72
2022/03/04 03:30:24;;;;;;;46.90;21.98;;;;;;;1.86;69.48;99400.72;5028192;28;20104;-73
2022/03/04 03:32:49;;;;;;;45.17;22.50;;;;;;;1.86;69.96;99400.72;5028053;28;20140;-74
2022/03/04 03:35:15;;;;;;;42.10;19.48;;;;;;;1.88;69.85;99398.75;5029620;28;20059;-74
2022/03/04 03:37:40;;;;;;;42.13;20.60;;;;;;;1.87;69.67;99391.84;5011542;28;20036;-74
2022/03/04 03:40:09;;;;;;;39.15;19.42;;;;;;;1.89;69.75;99380.13;5027217;28;20044;-73
2022/03/04 03:42:35;;;;;;;43.00;18.70;;;;;;;1.83;69.79;99378.22;5026356;28;20026;-74
2022/03/04 03:45:00;;;;;;;43.92;21.70;;;;;;;1.89;69.11;99382.75;5029831;28;20048;-74
2022/03/04 03:47:26;;;;;;;45.28;22.58;;;;;;;1.88;69.65;99386.38;5011462;28;20371;-75
2022/03/04 03:49:51;;;;;;;42.00;20.27;;;;;;;1.87;69.38;99391.84;5028648;28;20039;-72
2022/03/04 03:52:16;;;;;;;37.08;19.75;;;;;;;1.86;69.16;99380.47;5027154;28;20030;-74
2022/03/04 03:54:42;;;;;;;41.05;20.08;;;;;;;1.85;69.04;99397.28;5029193;28;20073;-73
2022/03/04 03:57:07;;;;;;;38.28;19.77;;;;;;;1.86;69.61;99398.06;5029027;28;20104;-73
2022/03/04 03:59:33;;;;;;;38.20;19.73;;;;;;;1.81;69.70;99387.28;5028212;28;20478;-73
2022/03/04 04:02:02;;;;;;;41.92;20.42;;;;;;;1.86;69.04;99396.28;5028223;28;20112;-73
2022/03/04 04:04:27;;;;;;;42.33;21.27;;;;;;;1.84;69.44;99392.19;5028500;28;20387;-73
2022/03/04 04:06:52;;;;;;;39.17;20.85;;;;;;;1.85;69.50;99399.91;5028725;28;20022;-72
2022/03/04 04:09:18;;;;;;;40.67;20.27;;;;;;;1.80;69.43;99391.72;5012419;28;20033;-73
2022/03/04 04:11:43;;;;;;;37.63;17.95;;;;;;;1.79;69.41;99384.03;5009230;28;20026;-72
2022/03/04 04:14:09;;;;;;;37.58;18.83;;;;;;;1.84;69.29;99392.19;5026619;28;20037;-72
2022/03/04 04:16:36;;;;;;;38.85;18.77;;;;;;;1.83;69.33;99395.81;5021750;28;20030;-72
2022/03/04 04:19:02;;;;;;;37.72;18.23;;;;;;;1.87;68.81;99399.72;5029530;28;20128;-71
2022/03/04 04:21:28;;;;;;;42.97;19.42;;;;;;;1.83;69.36;99399.28;5029614;28;20036;-72
2022/03/04 04:23:54;;;;;;;38.80;18.40;;;;;;;1.80;68.69;99390.91;5026879;28;20030;-71
2022/03/04 04:26:20;;;;;;;36.72;19.25;;;;;;;1.84;69.61;99405.34;5028097;28;20018;-71
2022/03/04 04:28:45;;;;;;;43.45;17.85;;;;;;;1.82;69.08;99397.63;5029338;28;20021;-70
2022/03/04 04:31:11;;;;;;;39.45;19.70;;;;;;;1.80;69.27;99393.53;5027753;28;20082;-70
2022/03/04 04:33:36;;;;;;;39.67;18.73;;;;;;;1.81;69.11;99403.91;5027809;28;20033;-70
2022/03/04 04:36:02;;;;;;;37.83;18.33;;;;;;;1.77;68.44;99404.44;5009211;28;20557;-71
2022/03/04 04:38:27;;;;;;;35.88;17.92;;;;;;;1.80;69.05;99414.59;5024563;28;20088;-72
2022/03/04 04:40:53;;;;;;;35.25;17.15;;;;;;;1.79;68.59;99411.13;5027784;28;20045;-70
2022/03/04 04:43:18;;;;;;;36.05;17.73;;;;;;;1.79;68.54;99407.72;5012131;28;20038;-72
2022/03/04 04:45:43;;;;;;;38.97;17.08;;;;;;;1.79;68.77;99399.81;5029254;28;20560;-73
2022/03/04 04:48:09;;;;;;;36.65;18.05;;;;;;;1.76;68.21;99394.91;5025105;28;20524;-73
2022/03/04 04:50:34;;;;;;;34.88;16.88;;;;;;;1.75;69.11;99401.16;5027243;28;20049;-69
2022/03/04 04:52:59;;;;;;;39.00;19.92;;;;;;;1.74;68.73;99402.97;5025942;28;20167;-69
2022/03/04 04:55:25;;;;;;;34.67;17.25;;;;;;;1.74;68.79;99399.53;5025324;28;20524;-69
2022/03/04 04:57:50;;;;;;;35.25;17.17;;;;;;;1.75;68.35;99409.84;5028598;28;20502;-69
2022/03/04 05:00:17;;;;;;;43.85;18.02;;;;;;;1.74;68.26;99412.69;5009389;28;20095;-69
2022/03/04 05:02:43;;;;;;;34.75;17.42;;;;;;;1.71;68.56;99400.69;5028271;28;20556;-71
2022/03/04 05:05:08;;;;;;;37.70;17.05;;;;;;;1.71;68.32;99403.31;5049907;23;20045;-71
2022/03/04 05:07:33;;;;;;;36.10;17.15;;;;;;;1.70;68.39;99398.25;5048360;28;20119;-71
2022/03/04 05:09:59;;;;;;;34.33;16.38;;;;;;;1.66;68.38;99395.13;5047382;28;20044;-71
2022/03/04 05:12:24;;;;;;;34.92;17.52;;;;;;;1.70;68.66;99396.44;5049773;28;20025;-71
2022/03/04 05:14:49;;;;;;;36.40;16.67;;;;;;;1.70;68.97;99399.06;5042183;28;20034;-71
2022/03/04 05:17:15;;;;;;;32.13;17.35;;;;;;;1.67;68.61;99390.69;5013628;28;20025;-71
2022/03/04 05:19:40;;;;;;;34.17;15.73;;;;;;;1.70;68.36;99392.97;5032252;28;20048;-72
2022/03/04 05:22:05;;;;;;;34.92;15.60;;;;;;;1.65;68.30;99392.69;5010695;28;20040;-71
2022/03/04 05:24:30;;;;;;;35.15;15.55;;;;;;;1.56;68.85;99378.78;5030411;28;20045;-71
2022/03/04 05:26:56;;;;;;;32.28;15.05;;;;;;;1.65;68.48;99395.31;5010722;28;20505;-71
2022/03/04 05:29:21;;;;;;;30.85;15.77;;;;;;;1.66;68.81;99400.41;5031431;28;20033;-71
2022/03/04 05:31:46;;;;;;;35.88;16.58;;;;;;;1.66;67.98;99394.34;5032606;28;20030;-72
2022/03/04 05:34:12;;;;;;;31.08;15.30;;;;;;;1.63;68.57;99395.50;5031363;28;20048;-71
2022/03/04 05:36:38;;;;;;;32.75;15.63;;;;;;;1.67;68.94;99407.31;5012041;28;20486;-71
2022/03/04 05:39:04;;;;;;;33.92;15.73;;;;;;;1.67;68.44;99407.31;5030248;28;20057;-73
2022/03/04 05:41:30;;;;;;;25.58;14.38;;;;;;;1.70;68.14;99409.59;5028594;28;20108;-73
2022/03/04 05:43:56;;;;;;;33.25;16.02;;;;;;;1.71;68.10;99403.31;5032289;28;20044;-71
2022/03/04 05:46:22;;;;;;;33.63;15.82;;;;;;;1.61;68.52;99405.41;5021710;28;20029;-73
2022/03/04 05:48:47;;;;;;;30.73;15.07;;;;;;;1.68;68.17;99413.41;5031994;28;20167;-74
2022/03/04 05:51:13;;;;;;;37.92;16.60;;;;;;;1.66;68.74;99412.75;5031247;28;20033;-73
2022/03/04 05:53:38;;;;;;;36.00;17.88;;;;;;;1.66;68.28;99418.03;5032436;28;20031;-72
2022/03/04 05:56:05;;;;;;;40.15;17.35;;;;;;;1.67;68.37;99417.00;5031779;28;20474;-72
2022/03/04 05:58:31;;;;;;;35.70;16.45;;;;;;;1.67;68.75;99422.28;5030363;28;20045;-73
2022/03/04 06:00:56;;;;;;;30.13;14.57;;;;;;;1.67;68.58;99423.09;5032469;28;20033;-75
2022/03/04 06:03:22;;;;;;;31.13;16.02;;;;;;;1.58;68.32;99421.53;5032882;28;20032;-73
2022/03/04 06:05:47;;;;;;;30.85;15.23;;;;;;;1.61;68.14;99423.81;5014273;28;20056;-73
2022/03/04 06:08:13;;;;;;;31.85;15.30;;;;;;;1.65;68.59;99427.72;5032292;28;20109;-72
2022/03/04 06:10:38;;;;;;;31.48;15.85;;;;;;;1.65;68.80;99438.25;5031951;28;20037;-73
2022/03/04 06:13:03;;;;;;;35.10;15.90;;;;;;;1.66;68.17;99439.84;5026942;28;20033;-74
2022/03/04 06:15:29;;;;;;;32.50;14.90;;;;;;;1.68;67.84;99435.28;5029705;28;20085;-73
2022/03/04 06:17:54;;;;;;;35.60;16.73;;;;;;;1.68;67.90;99432.63;5030180;28;20504;-74
2022/03/04 06:20:20;;;;;;;40.33;16.70;;;;;;;1.59;68.13;99411.81;5032328;28;20533;-72
2022/03/04 06:22:45;;;;;;;34.70;15.20;;;;;;;1.60;67.85;99418.69;5025358;28;20021;-72
2022/03/04 06:25:12;;;;;;;28.08;13.90;;;;;;;1.70;68.40;99437.72;5026438;28;20038;-72
2022/03/04 06:27:50;;;;;;;30.70;15.13;;;;;;;1.68;67.89;99445.78;5030646;28;20022;-72
2022/03/04 06:30:15;;;;;;;30.67;15.30;;;;;;;1.70;68.21;99453.50;5024101;28;20151;-72
2022/03/04 06:32:41;;;;;;;34.78;15.93;;;;;;;1.66;68.43;99437.22;5031154;28;20116;-73
2022/03/04 06:35:07;;;;;;;33.10;16.25;;;;;;;1.69;68.55;99455.31;5014204;28;20033;-73
2022/03/04 06:37:32;;;;;;;31.40;16.33;;;;;;;1.71;68.00;99460.38;5031107;28;20026;-72
2022/03/04 06:39:57;;;;;;;30.77;15.85;;;;;;;1.72;67.65;99451.50;5032299;28;20033;-72
2022/03/04 06:42:23;;;;;;;37.72;15.95;;;;;;;1.71;68.09;99461.22;5030960;28;20034;-72
2022/03/04 06:44:48;;;;;;;30.42;16.25;;;;;;;1.70;67.98;99469.28;5026149;28;20091;-72
2022/03/04 06:47:13;;;;;;;31.95;16.23;;;;;;;1.68;68.44;99461.56;5028823;28;20508;-72
2022/03/04 06:49:38;;;;;;;33.08;15.18;;;;;;;1.71;67.97;99466.47;5014689;28;20044;-72
2022/03/04 06:52:04;;;;;;;31.60;15.40;;;;;;;1.72;67.84;99475.19;5032193;28;20045;-72
2022/03/04 06:54:32;;;;;;;32.90;14.85;;;;;;;1.71;67.13;99468.28;5031950;28;20029;-72
2022/03/04 06:56:57;;;;;;;34.63;15.95;;;;;;;1.72;68.29;99462.03;5031452;28;20038;-72
2022/03/04 06:59:22;;;;;;;29.23;14.98;;;;;;;1.70;68.09;99464.84;5031740;28;20055;-72
2022/03/04 07:01:48;;;;;;;28.17;14.75;;;;;;;1.71;67.77;99465.63;5021571;28;20485;-72
2022/03/04 07:04:13;;;;;;;26.27;13.90;;;;;;;1.72;67.53;99469.94;5007134;28;20029;-72
2022/03/04 07:06:38;;;;;;;31.27;14.65;;;;;;;1.71;67.57;99470.91;5031880;28;20021;-72
2022/03/04 07:09:04;;;;;;;32.67;14.98;;;;;;;1.74;68.33;99475.81;5028350;28;20037;-72
2022/03/04 07:11:29;;;;;;;32.92;15.48;;;;;;;1.73;67.57;99482.91;5031586;28;20044;-72
2022/03/04 07:13:54;;;;;;;29.75;14.70;;;;;;;1.75;68.13;99482.75;5031529;28;20154;-72
2022/03/04 07:16:19;;;;;;;31.73;15.25;;;;;;;1.77;68.33;99481.53;5031323;28;20036;-72
2022/03/04 07:18:45;;;;;;;27.08;13.95;;;;;;;1.78;67.79;99477.09;5022982;28;20521;-72
2022/03/04 07:21:11;;;;;;;30.25;14.30;;;;;;;1.70;67.85;99472.75;5025204;28;20029;-73
2022/03/04 07:23:36;;;;;;;27.55;14.27;;;;;;;1.82;67.73;99478.38;5029039;28;20033;-72
2022/03/04 07:26:02;;;;;;;29.23;14.43;;;;;;;1.67;68.01;99459.94;5029175;28;20496;-73
2022/03/04 07:28:27;;;;;;;28.58;14.40;;;;;;;1.86;67.73;99496.28;5029089;28;20305;-72
2022/03/04 07:30:53;;;;;;;27.48;13.15;;;;;;;1.88;68.21;99496.13;5026650;28;20029;-72
2022/03/04 07:33:18;;;;;;;28.52;14.32;;;;;;;1.88;67.55;99496.13;5028287;28;20083;-72
2022/03/04 07:35:45;;;;;;;81.20;18.67;;;;;;;1.85;67.98;99494.66;5027475;28;20025;-72
2022/03/04 07:38:12;;;;;;;34.63;16.15;;;;;;;1.84;67.23;99500.06;5028225;28;20049;-73
2022/03/04 07:40:38;;;;;;;32.92;15.45;;;;;;;1.77;67.89;99501.81;5030665;28;20029;-73
2022/03/04 07:43:04;;;;;;;31.20;18.15;;;;;;;1.73;68.35;99506.56;5030056;28;20029;-72
2022/03/04 07:45:29;;;;;;;48.50;17.08;;;;;;;1.69;69.39;99515.00;5030042;28;20105;-72
2022/03/04 07:47:54;;;;;;;39.33;18.90;;;;;;;1.62;69.70;99517.50;5029256;28;20025;-72
2022/03/04 07:50:19;;;;;;;42.63;19.00;;;;;;;1.59;70.57;99514.41;5011354;28;20033;-71
2022/03/04 07:52:45;;;;;;;41.78;17.88;;;;;;;1.57;71.37;99524.28;5029242;28;20025;-71
2022/03/04 07:55:15;;;;;;;32.38;17.35;;;;;;;1.59;71.75;99524.94;5029531;28;20041;-71
2022/03/04 07:57:41;;;;;;;34.88;16.10;;;;;;;1.61;73.30;99517.69;5029654;28;20080;-71
2022/03/04 08:00:08;;;;;;;41.03;16.92;;;;;;;1.66;73.05;99529.31;5028809;28;20037;-71
2022/03/04 08:02:34;;;;;;;32.35;16.25;;;;;;;1.66;73.02;99510.09;5026512;28;20035;-71
2022/03/04 08:04:59;;;;;;;35.15;17.27;;;;;;;1.78;73.35;99525.28;5008711;28;20042;-71
2022/03/04 08:07:24;;;;;;;39.67;16.80;;;;;;;1.85;73.26;99520.97;5028098;28;20502;-71
2022/03/04 08:09:50;;;;;;;34.17;17.35;;;;;;;1.91;73.23;99522.06;5027273;28;20039;-71
2022/03/04 08:12:15;;;;;;;33.17;16.75;;;;;;;1.96;73.71;99522.38;5030371;28;20060;-71
2022/03/04 08:14:41;;;;;;;43.10;17.05;;;;;;;2.00;72.21;99519.19;5025471;28;20033;-71
2022/03/04 08:17:06;;;;;;;34.88;16.73;;;;;;;2.05;73.07;99526.56;5029895;28;20037;-71
2022/03/04 08:19:33;;;;;;;37.63;17.52;;;;;;;2.12;72.71;99516.94;5027793;28;20064;-71
2022/03/04 08:21:58;;;;;;;41.72;17.70;;;;;;;2.17;73.34;99527.78;5026297;28;20473;-71
2022/03/04 08:24:24;;;;;;;36.45;17.13;;;;;;;2.22;73.38;99525.44;5029866;28;20061;-71
2022/03/04 08:26:50;;;;;;;40.05;18.73;;;;;;;2.28;73.17;99532.59;5030135;28;20478;-71
2022/03/04 08:29:15;;;;;;;41.80;17.52;;;;;;;2.32;72.64;99533.06;5029869;28;20041;-71
2022/03/04 08:31:40;;;;;;;38.80;17.65;;;;;;;2.36;72.53;99535.16;5029969;28;20044;-71
2022/03/04 08:34:06;;;;;;;42.40;16.67;;;;;;;2.40;72.34;99525.09;5025426;28;20474;-71
2022/03/04 08:36:32;;;;;;;41.53;18.20;;;;;;;2.34;72.54;99529.25;5025440;28;20563;-71
2022/03/04 08:38:59;;;;;;;34.80;15.57;;;;;;;2.47;72.21;99540.00;5020385;28;20038;-71
2022/03/04 08:41:24;;;;;;;34.53;16.25;;;;;;;2.50;71.84;99528.28;5026981;28;20104;-71
2022/03/04 08:43:51;;;;;;;37.80;18.80;;;;;;;2.52;71.46;99526.28;5030471;28;20116;-71
2022/03/04 08:46:17;;;;;;;41.75;16.02;;;;;;;2.58;71.72;99541.41;5027168;28;20037;-71
2022/03/04 08:48:43;;;;;;;41.45;16.48;;;;;;;2.58;71.62;99530.84;5027379;28;20036;-71
2022/03/04 08:51:08;;;;;;;38.85;16.63;;;;;;;2.64;71.59;99538.84;5014237;28;20037;-71
2022/03/04 08:53:34;;;;;;;36.10;16.17;;;;;;;2.67;71.92;99532.38;5022745;28;20033;-71
2022/03/04 08:55:59;;;;;;;38.65;17.52;;;;;;;2.71;71.67;99544.22;5025865;28;20124;-71
2022/03/04 08:58:25;;;;;;;34.47;17.02;;;;;;;2.74;70.99;99538.56;5032604;28;20044;-72
2022/03/04 09:00:50;;;;;;;39.50;16.02;;;;;;;2.76;71.31;99545.31;5030870;28;20025;-71
2022/03/04 09:03:15;;;;;;;32.40;15.75;;;;;;;2.79;71.18;99552.84;5034794;28;20489;-71
2022/03/04 09:05:41;;;;;;;48.13;18.75;;;;;;;2.82;70.42;99538.47;5033458;28;20045;-71
2022/03/04 09:08:06;;;;;;;35.85;18.08;;;;;;;2.83;70.46;99548.84;5033726;28;20021;-71
2022/03/04 09:10:31;;;;;;;37.08;17.08;;;;;;;2.67;69.92;99508.66;5027290;28;20037;-71
2022/03/04 09:12:57;;;;;;;33.33;15.88;;;;;;;2.88;70.10;99541.19;5032474;28;20033;-71
2022/03/04 09:15:22;;;;;;;33.38;15.18;;;;;;;2.88;69.22;99548.31;5014456;28;20029;-71
2022/03/04 09:17:47;;;;;;;36.85;17.25;;;;;;;2.90;70.11;99544.50;5033130;28;20033;-71
2022/03/04 09:20:14;;;;;;;34.08;16.58;;;;;;;2.90;69.75;99541.84;5033084;28;20029;-71
2022/03/04 09:22:40;;;;;;;37.72;16.83;;;;;;;2.88;69.94;99535.13;5033014;28;20062;-71
2022/03/04 09:25:06;;;;;;;39.15;19.85;;;;;;;2.98;70.21;99543.56;5032662;28;20496;-71
2022/03/04 09:27:31;;;;;;;39.25;15.18;;;;;;;3.01;70.31;99530.03;5031227;28;20060;-71
2022/03/04 09:29:57;;;;;;;37.75;16.20;;;;;;;3.04;70.16;99538.38;5026273;28;20052;-71
2022/03/04 09:32:23;;;;;;;33.88;15.27;;;;;;;2.97;68.41;99531.41;5033253;28;20106;-72
2022/03/04 09:34:48;;;;;;;31.05;15.73;;;;;;;2.93;67.67;99533.56;5025472;28;20061;-72
2022/03/04 09:37:14;;;;;;;36.35;15.63;;;;;;;2.93;68.53;99544.09;5031899;28;20060;-72
2022/03/04 09:39:39;;;;;;;34.50;16.63;;;;;;;2.96;69.34;99548.22;5030138;28;20025;-72
2022/03/04 09:42:07;;;;;;;42.03;18.98;;;;;;;2.98;69.39;99549.66;5030053;28;20040;-71
2022/03/04 09:44:32;;;;;;;37.72;18.58;;;;;;;3.02;68.85;99550.09;5031863;28;20029;-71
2022/03/04 09:47:01;;;;;;;33.35;17.67;;;;;;;3.04;69.10;99545.47;5026656;28;20033;-71
2022/03/04 09:49:32;;;;;;;37.10;16.58;;;;;;;3.06;68.60;99543.47;5029168;28;20112;-71
2022/03/04 09:51:57;;;;;;;31.55;14.05;;;;;;;3.06;68.45;99537.41;5032842;28;20489;-71
2022/03/04 09:54:27;;;;;;;38.67;18.58;;;;;;;3.08;69.34;99535.38;5031149;28;20124;-71
2022/03/04 09:56:52;;;;;;;38.72;16.77;;;;;;;3.13;68.76;99535.63;5030455;28;20033;-71
2022/03/04 09:59:18;;;;;;;35.50;15.98;;;;;;;3.16;68.91;99540.56;5030742;28;20028;-71
2022/03/04 10:01:44;;;;;;;35.08;14.57;;;;;;;3.18;68.72;99543.81;5031379;28;20037;-72
2022/03/04 10:04:11;;;;;;;33.58;17.13;;;;;;;3.20;68.71;99547.91;5031736;28;20033;-71
2022/03/04 10:06:38;;;;;;;31.95;17.30;;;;;;;3.23;68.67;99538.81;5031610;28;20041;-71
2022/03/04 10:09:03;;;;;;;44.92;18.75;;;;;;;3.24;68.54;99543.06;5032138;28;20033;-72
2022/03/04 10:11:33;;;;;;;36.45;17.67;;;;;;;3.25;68.84;99537.63;5030611;28;20108;-72
2022/03/04 10:14:09;;;;;;;36.42;16.55;;;;;;;3.24;68.00;99540.44;5031117;28;20037;-71
2022/03/04 10:16:36;;;;;;;40.70;17.73;;;;;;;3.28;68.13;99541.69;4994092;28;20032;-71
2022/03/04 10:19:08;;;;;;;45.30;18.75;;;;;;;3.32;68.34;99548.28;5027546;28;20029;-71
2022/03/04 10:22:04;;;;;;;37.50;18.25;;;;;;;3.29;68.55;99541.53;5031461;28;20033;-72
2022/03/04 10:24:36;;;;;;;34.42;17.20;;;;;;;3.32;68.62;99548.28;5007381;28;20045;-72
2022/03/04 10:27:14;;;;;;;43.42;17.17;;;;;;;3.35;68.00;99547.88;5032287;28;20490;-71
2022/03/04 10:29:45;;;;;;;39.58;17.67;;;;;;;3.32;68.31;99532.44;5010928;28;20485;-71
2022/03/04 10:32:26;;;;;;;40.13;17.35;;;;;;;3.39;68.16;99539.41;5027853;28;20058;-72
2022/03/04 10:34:55;;;;;;;46.63;20.17;;;;;;;3.43;68.56;99547.78;5024038;28;20038;-72
2022/03/04 10:37:46;;;;;;;48.65;21.52;;;;;;;3.43;68.09;99540.66;5031607;28;20033;-71
2022/03/04 10:40:16;;;;;;;52.30;24.48;;;;;;;3.47;67.88;99539.28;5031912;28;20037;-72
2022/03/04 10:42:43;;;;;;;61.83;28.38;;;;;;;3.53;68.09;99545.66;5032017;28;20088;-71
2022/03/04 10:45:14;;;;;;;57.70;27.77;;;;;;;3.48;68.16;99533.03;5031919;28;20041;-72
2022/03/04 10:47:52;;;;;;;49.67;23.30;;;;;;;3.52;67.58;99530.81;5028633;28;20037;-72
2022/03/04 10:50:29;;;;;;;58.75;26.67;;;;;;;3.59;68.20;99537.81;5016072;28;20041;-71
2022/03/04 10:52:57;;;;;;;49.00;23.48;;;;;;;3.62;68.21;99540.09;5024324;28;20025;-72
2022/03/04 10:55:42;;;;;;;50.70;24.70;;;;;;;3.67;67.81;99539.50;5030119;28;20032;-71
2022/03/04 10:58:16;;;;;;;48.67;22.63;;;;;;;3.68;67.28;99530.59;5031502;28;20029;-71
2022/03/04 11:00:45;;;;;;;46.92;21.73;;;;;;;3.68;67.67;99531.41;5031732;28;20041;-71
2022/03/04 11:03:17;;;;;;;47.70;24.65;;;;;;;3.71;67.46;99530.25;5031297;28;20068;-71
2022/03/04 11:05:43;;;;;;;57.90;25.15;;;;;;;3.75;68.08;99531.50;5021791;28;20029;-71
2022/03/04 11:08:09;;;;;;;57.17;24.45;;;;;;;3.76;67.64;99525.19;5013400;28;20033;-72
2022/03/04 11:10:35;;;;;;;49.60;23.58;;;;;;;3.83;67.51;99530.53;5031461;28;20437;-71
2022/03/04 11:13:04;;;;;;;45.63;23.23;;;;;;;3.85;67.42;99534.63;5031045;28;20049;-71
2022/03/04 11:15:31;;;;;;;52.83;25.67;;;;;;;3.80;67.13;99513.25;5031379;28;20478;-71
2022/03/04 11:18:04;;;;;;;48.10;24.13;;;;;;;3.91;67.44;99523.31;5013666;28;20413;-71
2022/03/04 11:20:29;;;;;;;49.55;24.10;;;;;;;3.95;67.07;99536.97;5030139;28;20087;-71